sensor_id;sensor_type;location;lat;lon;timestamp;P1;durP1;ratioP1;P2;durP2;ratioP2
51312;SDS011;37397;53.226;10.400;2023-07-20T00:02:02;3.17;;;1.50;;
51312;SDS011;37397;53.226;10.400;2023-07-20T00:04:29;4.65;;;1.50;;
51312;SDS011;37397;53.226;10.400;2023-07-20T00:06:55;3.38;;;1.63;;
51312;SDS011;37397;53.226;10.400;2023-07-20T00:09:22;2.50;;;1.40;;
51312;SDS011;37397;53.226;10.400;2023-07-20T00:11:49;2.65;;;1.60;;
51312;SDS011;37397;53.226;10.400;2023-07-20T00:14:17;4.00;;;1.55;;
51312;SDS011;37397;53.226;10.400;2023-07-20T00:16:45;3.45;;;1.50;;
51312;SDS011;37397;53.226;10.400;2023-07-20T00:19:12;4.03;;;1.77;;
51312;SDS011;37397;53.226;10.400;2023-07-20T00:21:39;3.72;;;1.58;;
51312;SDS011;37397;53.226;10.400;2023-07-20T00:24:07;2.35;;;1.45;;
51312;SDS011;37397;53.226;10.400;2023-07-20T00:26:33;2.65;;;1.58;;
51312;SDS011;37397;53.226;10.400;2023-07-20T00:29:00;4.75;;;1.38;;
51312;SDS011;37397;53.226;10.400;2023-07-20T00:31:26;6.63;;;1.73;;
51312;SDS011;37397;53.226;10.400;2023-07-20T00:33:55;2.83;;;1.42;;
51312;SDS011;37397;53.226;10.400;2023-07-20T00:36:22;3.50;;;1.70;;
51312;SDS011;37397;53.226;10.400;2023-07-20T00:38:49;3.97;;;1.43;;
51312;SDS011;37397;53.226;10.400;2023-07-20T00:41:15;2.17;;;1.30;;
51312;SDS011;37397;53.226;10.400;2023-07-20T00:43:42;2.78;;;1.25;;
51312;SDS011;37397;53.226;10.400;2023-07-20T00:46:08;2.72;;;1.42;;
51312;SDS011;37397;53.226;10.400;2023-07-20T00:48:35;3.80;;;1.30;;
51312;SDS011;37397;53.226;10.400;2023-07-20T00:51:02;3.40;;;1.50;;
51312;SDS011;37397;53.226;10.400;2023-07-20T00:53:30;2.17;;;1.40;;
51312;SDS011;37397;53.226;10.400;2023-07-20T00:55:56;3.53;;;1.50;;
51312;SDS011;37397;53.226;10.400;2023-07-20T00:58:23;2.78;;;1.35;;
51312;SDS011;37397;53.226;10.400;2023-07-20T01:00:50;3.10;;;1.70;;
51312;SDS011;37397;53.226;10.400;2023-07-20T01:03:18;5.10;;;1.45;;
51312;SDS011;37397;53.226;10.400;2023-07-20T01:05:51;1.63;;;1.40;;
51312;SDS011;37397;53.226;10.400;2023-07-20T01:08:32;1.83;;;1.42;;
51312;SDS011;37397;53.226;10.400;2023-07-20T01:11:13;4.63;;;1.27;;
51312;SDS011;37397;53.226;10.400;2023-07-20T01:13:48;3.90;;;1.42;;
51312;SDS011;37397;53.226;10.400;2023-07-20T01:16:15;1.83;;;1.40;;
51312;SDS011;37397;53.226;10.400;2023-07-20T01:18:42;2.78;;;1.30;;
51312;SDS011;37397;53.226;10.400;2023-07-20T01:21:09;1.63;;;1.23;;
51312;SDS011;37397;53.226;10.400;2023-07-20T01:23:56;3.33;;;1.42;;
51312;SDS011;37397;53.226;10.400;2023-07-20T01:26:37;2.65;;;1.50;;
51312;SDS011;37397;53.226;10.400;2023-07-20T01:32:08;4.30;;;1.40;;
51312;SDS011;37397;53.226;10.400;2023-07-20T01:34:36;3.50;;;1.88;;
51312;SDS011;37397;53.226;10.400;2023-07-20T01:37:05;2.88;;;1.45;;
51312;SDS011;37397;53.226;10.400;2023-07-20T01:39:33;3.85;;;1.55;;
51312;SDS011;37397;53.226;10.400;2023-07-20T01:42:00;2.17;;;1.40;;
51312;SDS011;37397;53.226;10.400;2023-07-20T01:44:27;2.35;;;1.38;;
51312;SDS011;37397;53.226;10.400;2023-07-20T01:46:54;3.38;;;1.67;;
51312;SDS011;37397;53.226;10.400;2023-07-20T01:49:20;4.72;;;1.85;;
51312;SDS011;37397;53.226;10.400;2023-07-20T01:51:47;2.17;;;1.40;;
51312;SDS011;37397;53.226;10.400;2023-07-20T01:54:15;2.80;;;1.55;;
51312;SDS011;37397;53.226;10.400;2023-07-20T01:56:42;3.92;;;1.50;;
51312;SDS011;37397;53.226;10.400;2023-07-20T01:59:08;1.70;;;1.38;;
51312;SDS011;37397;53.226;10.400;2023-07-20T02:01:35;4.65;;;1.60;;
51312;SDS011;37397;53.226;10.400;2023-07-20T02:04:01;4.18;;;1.55;;
51312;SDS011;37397;53.226;10.400;2023-07-20T02:06:28;2.03;;;1.45;;
51312;SDS011;37397;53.226;10.400;2023-07-20T02:08:54;4.63;;;1.80;;
51312;SDS011;37397;53.226;10.400;2023-07-20T02:11:21;2.35;;;1.30;;
51312;SDS011;37397;53.226;10.400;2023-07-20T02:13:48;2.75;;;1.58;;
51312;SDS011;37397;53.226;10.400;2023-07-20T02:16:14;3.67;;;1.77;;
51312;SDS011;37397;53.226;10.400;2023-07-20T02:18:41;3.50;;;1.48;;
51312;SDS011;37397;53.226;10.400;2023-07-20T02:21:07;4.30;;;1.90;;
51312;SDS011;37397;53.226;10.400;2023-07-20T02:23:34;1.65;;;1.30;;
51312;SDS011;37397;53.226;10.400;2023-07-20T02:26:01;3.08;;;1.50;;
51312;SDS011;37397;53.226;10.400;2023-07-20T02:28:27;2.28;;;1.60;;
51312;SDS011;37397;53.226;10.400;2023-07-20T02:30:55;1.52;;;1.38;;
51312;SDS011;37397;53.226;10.400;2023-07-20T02:33:21;3.13;;;1.45;;
51312;SDS011;37397;53.226;10.400;2023-07-20T02:35:48;2.00;;;1.50;;
51312;SDS011;37397;53.226;10.400;2023-07-20T02:38:15;3.40;;;1.70;;
51312;SDS011;37397;53.226;10.400;2023-07-20T02:40:41;2.95;;;1.52;;
51312;SDS011;37397;53.226;10.400;2023-07-20T02:43:08;3.92;;;1.67;;
51312;SDS011;37397;53.226;10.400;2023-07-20T02:45:35;5.97;;;2.10;;
51312;SDS011;37397;53.226;10.400;2023-07-20T02:48:06;1.70;;;1.40;;
51312;SDS011;37397;53.226;10.400;2023-07-20T02:50:34;3.80;;;1.77;;
51312;SDS011;37397;53.226;10.400;2023-07-20T02:53:01;3.85;;;1.90;;
51312;SDS011;37397;53.226;10.400;2023-07-20T02:55:28;4.95;;;1.55;;
51312;SDS011;37397;53.226;10.400;2023-07-20T02:57:54;2.95;;;1.70;;
51312;SDS011;37397;53.226;10.400;2023-07-20T03:00:21;2.60;;;1.90;;
51312;SDS011;37397;53.226;10.400;2023-07-20T03:02:49;3.38;;;1.88;;
51312;SDS011;37397;53.226;10.400;2023-07-20T03:05:22;3.28;;;2.10;;
51312;SDS011;37397;53.226;10.400;2023-07-20T03:07:51;2.85;;;2.08;;
51312;SDS011;37397;53.226;10.400;2023-07-20T03:10:18;3.22;;;1.60;;
51312;SDS011;37397;53.226;10.400;2023-07-20T03:12:44;3.72;;;2.20;;
51312;SDS011;37397;53.226;10.400;2023-07-20T03:15:11;3.13;;;1.95;;
51312;SDS011;37397;53.226;10.400;2023-07-20T03:17:39;4.50;;;2.25;;
51312;SDS011;37397;53.226;10.400;2023-07-20T03:20:05;6.20;;;2.38;;
51312;SDS011;37397;53.226;10.400;2023-07-20T03:22:35;4.13;;;2.05;;
51312;SDS011;37397;53.226;10.400;2023-07-20T03:25:03;3.40;;;2.10;;
51312;SDS011;37397;53.226;10.400;2023-07-20T03:27:30;7.10;;;2.60;;
51312;SDS011;37397;53.226;10.400;2023-07-20T03:29:59;5.22;;;2.35;;
51312;SDS011;37397;53.226;10.400;2023-07-20T03:32:26;5.75;;;2.40;;
51312;SDS011;37397;53.226;10.400;2023-07-20T03:34:52;6.97;;;2.47;;
51312;SDS011;37397;53.226;10.400;2023-07-20T03:37:19;4.32;;;2.22;;
51312;SDS011;37397;53.226;10.400;2023-07-20T03:39:45;3.38;;;2.00;;
51312;SDS011;37397;53.226;10.400;2023-07-20T03:42:12;3.53;;;2.00;;
51312;SDS011;37397;53.226;10.400;2023-07-20T03:44:38;4.93;;;1.92;;
51312;SDS011;37397;53.226;10.400;2023-07-20T03:47:07;4.00;;;2.13;;
51312;SDS011;37397;53.226;10.400;2023-07-20T03:49:34;4.40;;;1.95;;
51312;SDS011;37397;53.226;10.400;2023-07-20T03:52:00;3.42;;;1.90;;
51312;SDS011;37397;53.226;10.400;2023-07-20T03:54:29;2.67;;;1.75;;
51312;SDS011;37397;53.226;10.400;2023-07-20T03:56:56;3.10;;;1.40;;
51312;SDS011;37397;53.226;10.400;2023-07-20T03:59:22;2.17;;;1.65;;
51312;SDS011;37397;53.226;10.400;2023-07-20T04:01:49;2.65;;;1.52;;
51312;SDS011;37397;53.226;10.400;2023-07-20T04:04:16;6.65;;;1.52;;
51312;SDS011;37397;53.226;10.400;2023-07-20T04:06:43;1.35;;;1.25;;
51312;SDS011;37397;53.226;10.400;2023-07-20T04:09:11;1.63;;;1.35;;
51312;SDS011;37397;53.226;10.400;2023-07-20T04:11:38;2.17;;;1.50;;
51312;SDS011;37397;53.226;10.400;2023-07-20T04:14:04;2.42;;;1.45;;
51312;SDS011;37397;53.226;10.400;2023-07-20T04:16:31;2.00;;;1.50;;
51312;SDS011;37397;53.226;10.400;2023-07-20T04:18:59;3.50;;;1.40;;
51312;SDS011;37397;53.226;10.400;2023-07-20T04:21:26;2.83;;;1.10;;
51312;SDS011;37397;53.226;10.400;2023-07-20T04:23:53;1.70;;;1.10;;
51312;SDS011;37397;53.226;10.400;2023-07-20T04:26:20;3.30;;;1.33;;
51312;SDS011;37397;53.226;10.400;2023-07-20T04:28:48;1.35;;;1.25;;
51312;SDS011;37397;53.226;10.400;2023-07-20T04:31:28;1.90;;;1.30;;
51312;SDS011;37397;53.226;10.400;2023-07-20T04:33:58;2.38;;;1.08;;
51312;SDS011;37397;53.226;10.400;2023-07-20T04:36:25;1.23;;;1.13;;
51312;SDS011;37397;53.226;10.400;2023-07-20T04:38:53;1.98;;;1.20;;
51312;SDS011;37397;53.226;10.400;2023-07-20T04:41:21;2.70;;;1.38;;
51312;SDS011;37397;53.226;10.400;2023-07-20T04:43:50;1.60;;;1.10;;
51312;SDS011;37397;53.226;10.400;2023-07-20T04:46:25;4.50;;;1.40;;
51312;SDS011;37397;53.226;10.400;2023-07-20T04:48:52;1.35;;;0.95;;
51312;SDS011;37397;53.226;10.400;2023-07-20T04:51:19;1.90;;;1.13;;
51312;SDS011;37397;53.226;10.400;2023-07-20T04:53:49;1.05;;;0.95;;
51312;SDS011;37397;53.226;10.400;2023-07-20T04:56:15;1.92;;;1.10;;
51312;SDS011;37397;53.226;10.400;2023-07-20T04:58:43;2.05;;;1.00;;
51312;SDS011;37397;53.226;10.400;2023-07-20T05:01:09;1.45;;;0.80;;
51312;SDS011;37397;53.226;10.400;2023-07-20T05:03:37;2.92;;;1.08;;
51312;SDS011;37397;53.226;10.400;2023-07-20T05:06:04;1.75;;;1.10;;
51312;SDS011;37397;53.226;10.400;2023-07-20T05:08:31;2.03;;;1.10;;
51312;SDS011;37397;53.226;10.400;2023-07-20T05:10:59;1.70;;;1.00;;
51312;SDS011;37397;53.226;10.400;2023-07-20T05:13:26;2.92;;;0.93;;
51312;SDS011;37397;53.226;10.400;2023-07-20T05:15:53;1.98;;;1.20;;
51312;SDS011;37397;53.226;10.400;2023-07-20T05:18:20;2.17;;;1.10;;
51312;SDS011;37397;53.226;10.400;2023-07-20T05:20:48;4.47;;;1.13;;
51312;SDS011;37397;53.226;10.400;2023-07-20T05:23:17;2.10;;;1.17;;
51312;SDS011;37397;53.226;10.400;2023-07-20T05:25:46;1.30;;;1.10;;
51312;SDS011;37397;53.226;10.400;2023-07-20T05:28:13;1.35;;;1.23;;
51312;SDS011;37397;53.226;10.400;2023-07-20T05:30:40;1.42;;;1.33;;
51312;SDS011;37397;53.226;10.400;2023-07-20T05:33:06;1.20;;;1.10;;
51312;SDS011;37397;53.226;10.400;2023-07-20T05:35:33;1.00;;;0.90;;
51312;SDS011;37397;53.226;10.400;2023-07-20T05:38:00;2.65;;;1.20;;
51312;SDS011;37397;53.226;10.400;2023-07-20T05:40:26;2.08;;;1.20;;
51312;SDS011;37397;53.226;10.400;2023-07-20T05:42:53;3.00;;;1.70;;
51312;SDS011;37397;53.226;10.400;2023-07-20T05:45:21;2.58;;;1.30;;
51312;SDS011;37397;53.226;10.400;2023-07-20T05:47:48;3.92;;;1.20;;
51312;SDS011;37397;53.226;10.400;2023-07-20T05:50:15;2.00;;;1.42;;
51312;SDS011;37397;53.226;10.400;2023-07-20T05:52:41;5.10;;;1.63;;
51312;SDS011;37397;53.226;10.400;2023-07-20T05:55:08;2.55;;;1.40;;
51312;SDS011;37397;53.226;10.400;2023-07-20T05:57:34;2.35;;;1.23;;
51312;SDS011;37397;53.226;10.400;2023-07-20T06:00:01;1.98;;;1.17;;
51312;SDS011;37397;53.226;10.400;2023-07-20T06:02:37;3.90;;;1.02;;
51312;SDS011;37397;53.226;10.400;2023-07-20T06:05:04;3.22;;;1.48;;
51312;SDS011;37397;53.226;10.400;2023-07-20T06:07:30;2.22;;;1.40;;
51312;SDS011;37397;53.226;10.400;2023-07-20T06:09:58;1.98;;;1.10;;
51312;SDS011;37397;53.226;10.400;2023-07-20T06:12:25;1.10;;;1.00;;
51312;SDS011;37397;53.226;10.400;2023-07-20T06:14:52;1.73;;;1.00;;
51312;SDS011;37397;53.226;10.400;2023-07-20T06:17:18;1.40;;;0.88;;
51312;SDS011;37397;53.226;10.400;2023-07-20T06:19:45;2.03;;;1.20;;
51312;SDS011;37397;53.226;10.400;2023-07-20T06:22:11;0.93;;;0.93;;
51312;SDS011;37397;53.226;10.400;2023-07-20T06:24:38;3.00;;;1.17;;
51312;SDS011;37397;53.226;10.400;2023-07-20T06:27:04;2.05;;;1.20;;
51312;SDS011;37397;53.226;10.400;2023-07-20T06:29:32;1.42;;;1.05;;
51312;SDS011;37397;53.226;10.400;2023-07-20T06:31:58;1.77;;;1.35;;
51312;SDS011;37397;53.226;10.400;2023-07-20T06:34:25;2.30;;;1.10;;
51312;SDS011;37397;53.226;10.400;2023-07-20T06:36:51;2.28;;;1.10;;
51312;SDS011;37397;53.226;10.400;2023-07-20T06:39:18;2.22;;;1.20;;
51312;SDS011;37397;53.226;10.400;2023-07-20T06:41:47;2.15;;;1.20;;
51312;SDS011;37397;53.226;10.400;2023-07-20T06:44:14;3.13;;;1.30;;
51312;SDS011;37397;53.226;10.400;2023-07-20T06:46:41;2.63;;;1.30;;
51312;SDS011;37397;53.226;10.400;2023-07-20T06:49:08;1.05;;;0.90;;
51312;SDS011;37397;53.226;10.400;2023-07-20T06:51:37;2.35;;;1.00;;
51312;SDS011;37397;53.226;10.400;2023-07-20T06:54:04;1.70;;;1.15;;
51312;SDS011;37397;53.226;10.400;2023-07-20T06:56:31;3.45;;;1.40;;
51312;SDS011;37397;53.226;10.400;2023-07-20T06:58:59;1.55;;;1.27;;
51312;SDS011;37397;53.226;10.400;2023-07-20T07:01:25;2.85;;;1.25;;
51312;SDS011;37397;53.226;10.400;2023-07-20T07:03:52;1.95;;;1.30;;
51312;SDS011;37397;53.226;10.400;2023-07-20T07:06:21;2.72;;;1.40;;
51312;SDS011;37397;53.226;10.400;2023-07-20T07:08:50;1.83;;;1.35;;
51312;SDS011;37397;53.226;10.400;2023-07-20T07:11:16;2.10;;;1.27;;
51312;SDS011;37397;53.226;10.400;2023-07-20T07:13:45;4.30;;;1.40;;
51312;SDS011;37397;53.226;10.400;2023-07-20T07:16:13;2.85;;;1.40;;
51312;SDS011;37397;53.226;10.400;2023-07-20T07:18:50;2.70;;;1.45;;
51312;SDS011;37397;53.226;10.400;2023-07-20T07:21:17;2.63;;;1.42;;
51312;SDS011;37397;53.226;10.400;2023-07-20T07:23:43;3.17;;;1.60;;
51312;SDS011;37397;53.226;10.400;2023-07-20T07:26:11;1.75;;;1.20;;
51312;SDS011;37397;53.226;10.400;2023-07-20T07:28:38;6.82;;;1.80;;
51312;SDS011;37397;53.226;10.400;2023-07-20T07:31:05;3.67;;;1.50;;
51312;SDS011;37397;53.226;10.400;2023-07-20T07:33:34;2.40;;;1.20;;
51312;SDS011;37397;53.226;10.400;2023-07-20T07:36:01;2.15;;;1.40;;
51312;SDS011;37397;53.226;10.400;2023-07-20T07:38:28;2.17;;;1.17;;
51312;SDS011;37397;53.226;10.400;2023-07-20T07:41:15;2.72;;;1.40;;
51312;SDS011;37397;53.226;10.400;2023-07-20T07:43:42;1.73;;;1.20;;
51312;SDS011;37397;53.226;10.400;2023-07-20T07:46:08;3.03;;;1.30;;
51312;SDS011;37397;53.226;10.400;2023-07-20T07:48:35;4.22;;;1.30;;
51312;SDS011;37397;53.226;10.400;2023-07-20T07:51:02;2.55;;;1.38;;
51312;SDS011;37397;53.226;10.400;2023-07-20T07:53:28;2.25;;;1.33;;
51312;SDS011;37397;53.226;10.400;2023-07-20T07:55:55;3.35;;;1.60;;
51312;SDS011;37397;53.226;10.400;2023-07-20T07:58:21;2.08;;;1.55;;
51312;SDS011;37397;53.226;10.400;2023-07-20T08:00:48;4.00;;;1.60;;
51312;SDS011;37397;53.226;10.400;2023-07-20T08:03:15;3.03;;;1.30;;
51312;SDS011;37397;53.226;10.400;2023-07-20T08:05:42;5.32;;;1.17;;
51312;SDS011;37397;53.226;10.400;2023-07-20T08:08:08;2.53;;;1.20;;
51312;SDS011;37397;53.226;10.400;2023-07-20T08:10:36;2.45;;;1.17;;
51312;SDS011;37397;53.226;10.400;2023-07-20T08:13:02;2.38;;;1.23;;
51312;SDS011;37397;53.226;10.400;2023-07-20T08:15:29;2.40;;;1.13;;
51312;SDS011;37397;53.226;10.400;2023-07-20T08:17:55;3.00;;;1.48;;
51312;SDS011;37397;53.226;10.400;2023-07-20T08:20:23;4.63;;;1.60;;
51312;SDS011;37397;53.226;10.400;2023-07-20T08:22:54;3.28;;;1.42;;
51312;SDS011;37397;53.226;10.400;2023-07-20T08:25:21;4.20;;;1.30;;
51312;SDS011;37397;53.226;10.400;2023-07-20T08:27:48;4.38;;;1.80;;
51312;SDS011;37397;53.226;10.400;2023-07-20T08:30:14;1.67;;;1.02;;
51312;SDS011;37397;53.226;10.400;2023-07-20T08:32:41;2.72;;;1.48;;
51312;SDS011;37397;53.226;10.400;2023-07-20T08:35:07;2.83;;;1.05;;
51312;SDS011;37397;53.226;10.400;2023-07-20T08:37:34;3.15;;;1.40;;
51312;SDS011;37397;53.226;10.400;2023-07-20T08:40:01;2.25;;;1.42;;
51312;SDS011;37397;53.226;10.400;2023-07-20T08:42:30;1.80;;;1.20;;
51312;SDS011;37397;53.226;10.400;2023-07-20T08:44:58;2.75;;;1.30;;
51312;SDS011;37397;53.226;10.400;2023-07-20T08:47:26;3.80;;;1.58;;
51312;SDS011;37397;53.226;10.400;2023-07-20T08:49:52;3.67;;;1.50;;
51312;SDS011;37397;53.226;10.400;2023-07-20T08:52:20;2.55;;;1.63;;
51312;SDS011;37397;53.226;10.400;2023-07-20T08:54:47;5.88;;;1.40;;
51312;SDS011;37397;53.226;10.400;2023-07-20T08:57:15;4.20;;;1.17;;
51312;SDS011;37397;53.226;10.400;2023-07-20T08:59:43;4.53;;;1.40;;
51312;SDS011;37397;53.226;10.400;2023-07-20T09:02:11;3.47;;;1.73;;
51312;SDS011;37397;53.226;10.400;2023-07-20T09:04:45;2.22;;;1.63;;
51312;SDS011;37397;53.226;10.400;2023-07-20T09:07:11;2.55;;;1.23;;
51312;SDS011;37397;53.226;10.400;2023-07-20T09:09:40;3.13;;;1.25;;
51312;SDS011;37397;53.226;10.400;2023-07-20T09:12:14;3.50;;;1.73;;
51312;SDS011;37397;53.226;10.400;2023-07-20T09:14:43;4.68;;;1.50;;
51312;SDS011;37397;53.226;10.400;2023-07-20T09:17:13;2.92;;;1.30;;
51312;SDS011;37397;53.226;10.400;2023-07-20T09:19:46;1.52;;;0.95;;
51312;SDS011;37397;53.226;10.400;2023-07-20T09:22:14;4.03;;;1.25;;
51312;SDS011;37397;53.226;10.400;2023-07-20T09:24:40;2.88;;;1.50;;
51312;SDS011;37397;53.226;10.400;2023-07-20T09:27:09;2.40;;;1.25;;
51312;SDS011;37397;53.226;10.400;2023-07-20T09:29:49;2.28;;;1.17;;
51312;SDS011;37397;53.226;10.400;2023-07-20T09:32:18;1.77;;;1.20;;
51312;SDS011;37397;53.226;10.400;2023-07-20T09:34:49;2.45;;;1.33;;
51312;SDS011;37397;53.226;10.400;2023-07-20T09:37:21;2.83;;;1.10;;
51312;SDS011;37397;53.226;10.400;2023-07-20T09:39:49;1.65;;;1.00;;
51312;SDS011;37397;53.226;10.400;2023-07-20T09:42:21;5.45;;;1.13;;
51312;SDS011;37397;53.226;10.400;2023-07-20T09:44:51;2.85;;;1.50;;
51312;SDS011;37397;53.226;10.400;2023-07-20T09:47:22;5.75;;;1.60;;
51312;SDS011;37397;53.226;10.400;2023-07-20T09:49:59;3.97;;;1.58;;
51312;SDS011;37397;53.226;10.400;2023-07-20T09:52:29;5.75;;;1.77;;
51312;SDS011;37397;53.226;10.400;2023-07-20T09:54:59;2.92;;;1.33;;
51312;SDS011;37397;53.226;10.400;2023-07-20T09:57:27;4.95;;;1.63;;
51312;SDS011;37397;53.226;10.400;2023-07-20T09:59:54;6.78;;;1.50;;
51312;SDS011;37397;53.226;10.400;2023-07-20T10:02:22;4.80;;;1.60;;
51312;SDS011;37397;53.226;10.400;2023-07-20T10:04:53;4.53;;;1.98;;
51312;SDS011;37397;53.226;10.400;2023-07-20T10:07:21;3.30;;;1.38;;
51312;SDS011;37397;53.226;10.400;2023-07-20T10:09:51;4.47;;;1.90;;
51312;SDS011;37397;53.226;10.400;2023-07-20T10:12:19;3.17;;;1.73;;
51312;SDS011;37397;53.226;10.400;2023-07-20T10:14:52;4.63;;;2.15;;
51312;SDS011;37397;53.226;10.400;2023-07-20T10:17:28;4.63;;;1.73;;
51312;SDS011;37397;53.226;10.400;2023-07-20T10:19:55;6.38;;;1.88;;
51312;SDS011;37397;53.226;10.400;2023-07-20T10:22:26;3.70;;;1.85;;
51312;SDS011;37397;53.226;10.400;2023-07-20T10:24:56;3.25;;;1.73;;
51312;SDS011;37397;53.226;10.400;2023-07-20T10:27:26;4.50;;;2.03;;
51312;SDS011;37397;53.226;10.400;2023-07-20T10:29:52;3.13;;;1.90;;
51312;SDS011;37397;53.226;10.400;2023-07-20T10:32:21;3.85;;;1.65;;
51312;SDS011;37397;53.226;10.400;2023-07-20T10:34:51;6.57;;;2.03;;
51312;SDS011;37397;53.226;10.400;2023-07-20T10:43:08;3.25;;;1.70;;
51312;SDS011;37397;53.226;10.400;2023-07-20T10:45:40;2.78;;;1.70;;
51312;SDS011;37397;53.226;10.400;2023-07-20T10:48:19;2.92;;;1.65;;
51312;SDS011;37397;53.226;10.400;2023-07-20T10:53:41;4.25;;;2.33;;
51312;SDS011;37397;53.226;10.400;2023-07-20T10:56:11;6.55;;;2.28;;
51312;SDS011;37397;53.226;10.400;2023-07-20T10:58:42;2.65;;;1.77;;
51312;SDS011;37397;53.226;10.400;2023-07-20T11:01:09;5.90;;;2.03;;
51312;SDS011;37397;53.226;10.400;2023-07-20T11:03:42;4.63;;;1.88;;
51312;SDS011;37397;53.226;10.400;2023-07-20T11:08:55;4.85;;;2.00;;
51312;SDS011;37397;53.226;10.400;2023-07-20T11:11:29;5.30;;;1.92;;
51312;SDS011;37397;53.226;10.400;2023-07-20T11:13:57;5.20;;;1.92;;
51312;SDS011;37397;53.226;10.400;2023-07-20T11:16:42;2.58;;;1.70;;
51312;SDS011;37397;53.226;10.400;2023-07-20T11:19:16;4.15;;;1.65;;
51312;SDS011;37397;53.226;10.400;2023-07-20T11:21:53;2.75;;;1.30;;
51312;SDS011;37397;53.226;10.400;2023-07-20T11:24:29;5.50;;;2.00;;
51312;SDS011;37397;53.226;10.400;2023-07-20T11:26:55;3.92;;;1.35;;
51312;SDS011;37397;53.226;10.400;2023-07-20T11:29:22;5.82;;;1.60;;
51312;SDS011;37397;53.226;10.400;2023-07-20T11:31:59;3.15;;;1.50;;
51312;SDS011;37397;53.226;10.400;2023-07-20T11:34:26;2.83;;;1.70;;
51312;SDS011;37397;53.226;10.400;2023-07-20T11:36:54;5.97;;;1.85;;
51312;SDS011;37397;53.226;10.400;2023-07-20T11:39:23;4.15;;;1.65;;
51312;SDS011;37397;53.226;10.400;2023-07-20T11:41:52;4.35;;;1.58;;
51312;SDS011;37397;53.226;10.400;2023-07-20T11:44:21;6.97;;;1.42;;
51312;SDS011;37397;53.226;10.400;2023-07-20T11:47:10;2.13;;;1.10;;
51312;SDS011;37397;53.226;10.400;2023-07-20T11:49:39;4.13;;;1.48;;
51312;SDS011;37397;53.226;10.400;2023-07-20T11:52:07;2.55;;;1.20;;
51312;SDS011;37397;53.226;10.400;2023-07-20T11:54:42;3.50;;;1.13;;
51312;SDS011;37397;53.226;10.400;2023-07-20T11:57:18;6.07;;;2.97;;
51312;SDS011;37397;53.226;10.400;2023-07-20T11:59:55;7.80;;;3.83;;
51312;SDS011;37397;53.226;10.400;2023-07-20T12:02:24;6.45;;;3.08;;
51312;SDS011;37397;53.226;10.400;2023-07-20T12:04:53;4.50;;;2.33;;
51312;SDS011;37397;53.226;10.400;2023-07-20T12:07:21;4.38;;;1.90;;
51312;SDS011;37397;53.226;10.400;2023-07-20T12:12:52;4.17;;;1.47;;
51312;SDS011;37397;53.226;10.400;2023-07-20T12:15:20;4.15;;;1.50;;
51312;SDS011;37397;53.226;10.400;2023-07-20T12:17:52;3.17;;;1.33;;
51312;SDS011;37397;53.226;10.400;2023-07-20T12:20:24;2.83;;;1.58;;
51312;SDS011;37397;53.226;10.400;2023-07-20T12:23:05;4.77;;;1.40;;
51312;SDS011;37397;53.226;10.400;2023-07-20T12:25:38;4.07;;;1.42;;
51312;SDS011;37397;53.226;10.400;2023-07-20T12:28:07;7.00;;;1.73;;
51312;SDS011;37397;53.226;10.400;2023-07-20T12:30:36;4.43;;;1.52;;
51312;SDS011;37397;53.226;10.400;2023-07-20T12:33:03;2.65;;;1.33;;
51312;SDS011;37397;53.226;10.400;2023-07-20T12:35:31;3.30;;;1.25;;
51312;SDS011;37397;53.226;10.400;2023-07-20T12:37:58;3.65;;;1.50;;
51312;SDS011;37397;53.226;10.400;2023-07-20T12:40:25;2.88;;;1.23;;
51312;SDS011;37397;53.226;10.400;2023-07-20T12:42:52;2.90;;;1.30;;
51312;SDS011;37397;53.226;10.400;2023-07-20T12:45:19;2.92;;;1.17;;
51312;SDS011;37397;53.226;10.400;2023-07-20T12:47:45;2.90;;;1.00;;
51312;SDS011;37397;53.226;10.400;2023-07-20T12:50:12;1.67;;;1.00;;
51312;SDS011;37397;53.226;10.400;2023-07-20T12:52:39;2.67;;;1.00;;
51312;SDS011;37397;53.226;10.400;2023-07-20T12:55:07;3.20;;;1.20;;
51312;SDS011;37397;53.226;10.400;2023-07-20T12:57:35;1.58;;;0.88;;
51312;SDS011;37397;53.226;10.400;2023-07-20T13:00:03;4.38;;;1.25;;
51312;SDS011;37397;53.226;10.400;2023-07-20T13:02:32;2.58;;;1.20;;
51312;SDS011;37397;53.226;10.400;2023-07-20T13:04:59;2.08;;;1.05;;
51312;SDS011;37397;53.226;10.400;2023-07-20T13:07:30;4.40;;;1.23;;
51312;SDS011;37397;53.226;10.400;2023-07-20T13:10:01;1.85;;;1.05;;
51312;SDS011;37397;53.226;10.400;2023-07-20T13:12:31;3.20;;;1.30;;
51312;SDS011;37397;53.226;10.400;2023-07-20T13:15:01;2.75;;;1.10;;
51312;SDS011;37397;53.226;10.400;2023-07-20T13:17:28;2.05;;;1.00;;
51312;SDS011;37397;53.226;10.400;2023-07-20T13:19:55;2.88;;;1.23;;
51312;SDS011;37397;53.226;10.400;2023-07-20T13:22:22;3.28;;;1.42;;
51312;SDS011;37397;53.226;10.400;2023-07-20T13:24:50;2.17;;;1.10;;
51312;SDS011;37397;53.226;10.400;2023-07-20T13:27:17;2.50;;;1.27;;
51312;SDS011;37397;53.226;10.400;2023-07-20T13:29:45;3.45;;;1.17;;
51312;SDS011;37397;53.226;10.400;2023-07-20T13:32:14;3.33;;;1.10;;
51312;SDS011;37397;53.226;10.400;2023-07-20T13:34:41;2.13;;;1.20;;
51312;SDS011;37397;53.226;10.400;2023-07-20T13:37:08;3.22;;;1.00;;
51312;SDS011;37397;53.226;10.400;2023-07-20T13:39:38;2.42;;;1.05;;
51312;SDS011;37397;53.226;10.400;2023-07-20T13:42:05;3.30;;;1.40;;
51312;SDS011;37397;53.226;10.400;2023-07-20T13:44:32;4.32;;;1.58;;
51312;SDS011;37397;53.226;10.400;2023-07-20T13:46:59;6.00;;;1.40;;
51312;SDS011;37397;53.226;10.400;2023-07-20T13:49:29;3.15;;;1.42;;
51312;SDS011;37397;53.226;10.400;2023-07-20T13:52:11;5.07;;;1.02;;
51312;SDS011;37397;53.226;10.400;2023-07-20T13:54:41;3.13;;;0.85;;
51312;SDS011;37397;53.226;10.400;2023-07-20T13:57:14;2.50;;;1.10;;
51312;SDS011;37397;53.226;10.400;2023-07-20T13:59:42;3.30;;;1.10;;
51312;SDS011;37397;53.226;10.400;2023-07-20T14:02:09;4.55;;;1.35;;
51312;SDS011;37397;53.226;10.400;2023-07-20T14:04:39;3.17;;;1.02;;
51312;SDS011;37397;53.226;10.400;2023-07-20T14:07:06;3.03;;;1.08;;
51312;SDS011;37397;53.226;10.400;2023-07-20T14:09:33;3.28;;;1.02;;
51312;SDS011;37397;53.226;10.400;2023-07-20T14:11:59;4.85;;;1.30;;
51312;SDS011;37397;53.226;10.400;2023-07-20T14:14:29;4.05;;;1.00;;
51312;SDS011;37397;53.226;10.400;2023-07-20T14:16:55;2.70;;;1.10;;
51312;SDS011;37397;53.226;10.400;2023-07-20T14:19:22;3.00;;;1.00;;
51312;SDS011;37397;53.226;10.400;2023-07-20T14:21:49;1.48;;;0.82;;
51312;SDS011;37397;53.226;10.400;2023-07-20T14:24:16;1.88;;;1.10;;
51312;SDS011;37397;53.226;10.400;2023-07-20T14:26:45;4.03;;;1.20;;
51312;SDS011;37397;53.226;10.400;2023-07-20T14:29:13;2.22;;;0.85;;
51312;SDS011;37397;53.226;10.400;2023-07-20T14:31:40;3.88;;;1.20;;
51312;SDS011;37397;53.226;10.400;2023-07-20T14:34:07;3.13;;;1.30;;
51312;SDS011;37397;53.226;10.400;2023-07-20T14:36:33;3.40;;;1.35;;
51312;SDS011;37397;53.226;10.400;2023-07-20T14:39:00;1.90;;;1.00;;
51312;SDS011;37397;53.226;10.400;2023-07-20T14:41:27;3.20;;;1.17;;
51312;SDS011;37397;53.226;10.400;2023-07-20T14:43:54;6.53;;;1.80;;
51312;SDS011;37397;53.226;10.400;2023-07-20T14:46:20;5.45;;;1.30;;
51312;SDS011;37397;53.226;10.400;2023-07-20T14:48:47;4.88;;;1.80;;
51312;SDS011;37397;53.226;10.400;2023-07-20T14:51:14;6.22;;;2.83;;
51312;SDS011;37397;53.226;10.400;2023-07-20T14:53:40;5.75;;;2.33;;
51312;SDS011;37397;53.226;10.400;2023-07-20T14:56:07;3.75;;;2.10;;
51312;SDS011;37397;53.226;10.400;2023-07-20T14:58:34;5.80;;;2.10;;